Time;durP1;ratioP1;P1;durP2;ratioP2;P2;SDS_P1;SDS_P2;PMS_P1;PMS_P2;Temp;Humidity;BMP_temperature;BMP_pressure;BME280_temperature;BME280_humidity;BME280_pressure;Samples;Min_cycle;Max_cycle;Signal;HPM_P1;HPM_P2
2023/08/28 00:00:06;;;;;;;3.15;2.78;;;12.90;99.90;;;;;;5034277;28;20044;-67
2023/08/28 00:02:32;;;;;;;3.97;3.00;;;12.90;99.90;;;;;;5036210;28;20457;-67
2023/08/28 00:04:57;;;;;;;4.63;2.80;;;12.80;99.90;;;;;;5029168;28;20033;-67
2023/08/28 00:07:23;;;;;;;5.03;2.83;;;12.80;99.90;;;;;;5033529;28;20032;-67
2023/08/28 00:09:49;;;;;;;4.88;2.90;;;12.80;99.90;;;;;;5056320;28;20045;-67
2023/08/28 00:12:14;;;;;;;5.03;2.50;;;12.70;99.90;;;;;;5035730;28;20034;-66
2023/08/28 00:14:40;;;;;;;9.23;3.10;;;12.70;99.90;;;;;;5030503;28;20112;-67
2023/08/28 00:17:06;;;;;;;5.88;3.00;;;12.70;99.90;;;;;;5045664;28;20034;-67
2023/08/28 00:19:32;;;;;;;6.50;2.60;;;12.70;99.90;;;;;;5046054;28;20090;-67
2023/08/28 00:21:57;;;;;;;3.10;2.50;;;12.70;99.90;;;;;;5031740;28;20095;-67
2023/08/28 00:24:23;;;;;;;5.57;2.50;;;12.60;99.90;;;;;;5024997;28;20061;-66
2023/08/28 00:26:49;;;;;;;4.78;2.63;;;12.60;99.90;;;;;;5047210;28;20041;-66
2023/08/28 00:29:14;;;;;;;4.75;2.55;;;12.50;99.90;;;;;;5026302;28;20433;-67
2023/08/28 00:31:40;;;;;;;5.82;2.53;;;12.50;99.90;;;;;;5034967;28;20053;-67
2023/08/28 00:34:05;;;;;;;4.03;2.65;;;12.50;99.90;;;;;;5057971;28;20038;-67
2023/08/28 00:36:31;;;;;;;3.72;2.05;;;12.50;99.90;;;;;;5043585;28;20579;-67
2023/08/28 00:38:57;;;;;;;5.70;2.40;;;12.50;99.90;;;;;;5044056;28;20041;-67
2023/08/28 00:41:22;;;;;;;4.97;2.70;;;12.50;99.90;;;;;;5047427;28;20186;-67
2023/08/28 00:43:48;;;;;;;6.68;2.20;;;12.50;99.90;;;;;;5043883;28;20124;-67
2023/08/28 00:46:15;;;;;;;4.20;2.60;;;12.50;99.90;;;;;;5035408;28;20531;-67
2023/08/28 00:48:41;;;;;;;3.47;2.67;;;12.50;99.90;;;;;;5015788;28;20037;-67
2023/08/28 00:51:07;;;;;;;6.05;3.10;;;12.50;99.90;;;;;;5034328;28;20094;-67
2023/08/28 00:53:34;;;;;;;3.75;2.38;;;12.40;99.90;;;;;;5036992;28;20532;-67
2023/08/28 00:55:59;;;;;;;5.95;2.60;;;12.40;99.90;;;;;;5036990;28;20033;-67
2023/08/28 00:58:25;;;;;;;4.60;2.75;;;12.40;99.90;;;;;;5038509;28;20152;-67
2023/08/28 01:00:51;;;;;;;5.45;3.10;;;12.30;99.90;;;;;;5041110;28;20043;-66
2023/08/28 01:03:17;;;;;;;6.97;3.50;;;12.30;99.90;;;;;;5039840;28;20119;-66
2023/08/28 01:06:03;;;;;;;5.32;3.10;;;12.30;99.90;;;;;;5038902;28;20102;-67
2023/08/28 01:08:54;;;;;;;5.80;2.92;;;12.20;99.90;;;;;;5040390;28;20033;-67
2023/08/28 01:11:56;;;;;;;7.47;3.45;;;12.20;99.90;;;;;;5045672;28;20094;-67
2023/08/28 01:14:25;;;;;;;6.85;3.00;;;12.20;99.90;;;;;;5026852;28;20034;-67
2023/08/28 01:16:55;;;;;;;6.93;3.42;;;12.10;99.90;;;;;;5032110;28;20124;-67
2023/08/28 01:19:35;;;;;;;7.25;3.55;;;12.10;99.90;;;;;;5033808;28;20360;-66
2023/08/28 01:22:28;;;;;;;5.85;3.58;;;12.10;99.90;;;;;;5032895;28;20041;-66
2023/08/28 01:25:04;;;;;;;9.00;3.88;;;12.10;99.90;;;;;;5040363;28;20167;-67
2023/08/28 01:27:30;;;;;;;5.03;3.47;;;12.00;99.90;;;;;;5030762;28;20554;-67
2023/08/28 01:30:07;;;;;;;7.40;4.03;;;12.00;99.90;;;;;;5046622;28;20048;-66
2023/08/28 01:32:33;;;;;;;5.88;3.30;;;12.00;99.90;;;;;;5050780;28;20029;-67
2023/08/28 01:35:00;;;;;;;5.63;3.53;;;12.00;99.90;;;;;;5036014;28;20497;-67
2023/08/28 01:37:30;;;;;;;7.28;3.42;;;12.00;99.90;;;;;;5039291;28;20049;-67
2023/08/28 01:39:59;;;;;;;4.97;3.40;;;11.90;99.90;;;;;;5041402;28;20033;-67
2023/08/28 01:42:25;;;;;;;7.47;3.38;;;11.90;99.90;;;;;;5040090;28;20486;-66
2023/08/28 01:44:54;;;;;;;5.22;3.20;;;11.80;99.90;;;;;;5027900;28;20049;-66
2023/08/28 01:47:22;;;;;;;7.90;3.28;;;11.90;99.90;;;;;;5032088;28;20116;-67
2023/08/28 01:49:48;;;;;;;5.38;2.95;;;12.00;99.90;;;;;;5047272;28;20048;-67
2023/08/28 01:52:13;;;;;;;7.35;3.20;;;12.00;99.90;;;;;;5047948;28;20068;-67
2023/08/28 01:54:39;;;;;;;4.53;3.22;;;12.10;99.90;;;;;;5036331;28;20045;-67
2023/08/28 01:57:05;;;;;;;5.80;2.95;;;12.10;99.90;;;;;;5044126;28;20171;-67
2023/08/28 01:59:30;;;;;;;5.00;3.25;;;12.00;99.90;;;;;;5030699;28;20037;-67
2023/08/28 02:01:56;;;;;;;5.28;3.20;;;12.00;99.90;;;;;;5041286;28;20081;-67
2023/08/28 02:04:21;;;;;;;9.90;3.08;;;12.00;99.90;;;;;;5042057;28;20037;-67
2023/08/28 02:06:47;;;;;;;4.88;3.30;;;11.90;99.90;;;;;;5034681;28;20043;-66
2023/08/28 02:09:13;;;;;;;4.60;3.10;;;12.00;99.90;;;;;;5041321;28;20070;-67
2023/08/28 02:11:38;;;;;;;10.65;3.03;;;11.90;99.90;;;;;;5039525;28;20095;-67
2023/08/28 02:14:04;;;;;;;5.28;3.58;;;11.90;99.90;;;;;;5031976;28;20049;-67
2023/08/28 02:16:29;;;;;;;7.57;3.90;;;11.90;99.90;;;;;;5035988;28;20049;-67
2023/08/28 02:18:55;;;;;;;6.40;3.78;;;11.90;99.90;;;;;;5037470;28;20041;-67
2023/08/28 02:21:20;;;;;;;7.10;4.10;;;12.00;99.90;;;;;;5042257;28;20099;-67
2023/08/28 02:23:46;;;;;;;8.75;4.53;;;12.00;99.90;;;;;;5037493;28;20041;-67
2023/08/28 02:26:11;;;;;;;9.25;5.25;;;11.90;99.90;;;;;;5040650;28;20063;-67
2023/08/28 02:28:37;;;;;;;10.40;4.68;;;12.00;99.90;;;;;;5038535;28;20480;-67
2023/08/28 02:31:03;;;;;;;10.90;5.15;;;11.90;99.90;;;;;;5025626;28;20434;-67
2023/08/28 02:33:29;;;;;;;8.93;4.78;;;11.90;99.90;;;;;;5037501;28;20041;-67
2023/08/28 02:35:54;;;;;;;6.05;4.38;;;11.80;99.90;;;;;;5049459;28;20120;-67
2023/08/28 02:38:20;;;;;;;6.43;4.22;;;11.80;99.90;;;;;;5040578;28;20496;-66
2023/08/28 02:40:46;;;;;;;7.28;4.38;;;11.80;99.90;;;;;;5033033;28;20538;-66
2023/08/28 02:43:11;;;;;;;5.82;4.30;;;11.90;99.90;;;;;;5032384;28;21259;-67
2023/08/28 02:45:39;;;;;;;8.73;5.15;;;11.80;99.90;;;;;;5031492;28;20072;-67
2023/08/28 02:48:05;;;;;;;9.13;4.95;;;11.90;99.90;;;;;;5044759;28;20037;-67
2023/08/28 02:50:40;;;;;;;9.63;5.25;;;11.80;99.90;;;;;;5041982;28;20048;-67
2023/08/28 02:53:05;;;;;;;12.77;5.78;;;11.90;99.90;;;;;;5037253;28;20172;-67
2023/08/28 02:55:39;;;;;;;13.00;6.63;;;11.90;99.90;;;;;;5009857;28;20069;-67
2023/08/28 02:58:05;;;;;;;10.50;6.70;;;11.80;99.90;;;;;;5035159;28;20752;-67
2023/08/28 03:00:30;;;;;;;8.90;6.13;;;11.80;99.90;;;;;;5030875;28;20477;-67
2023/08/28 03:02:56;;;;;;;11.52;6.15;;;11.80;99.90;;;;;;5038923;28;20037;-67
2023/08/28 03:05:21;;;;;;;10.98;6.55;;;11.80;99.90;;;;;;5036820;28;20079;-66
2023/08/28 03:07:47;;;;;;;11.35;6.25;;;11.80;99.90;;;;;;5037204;28;20044;-67
2023/08/28 03:10:13;;;;;;;14.05;6.75;;;11.80;99.90;;;;;;5040844;28;20064;-67
2023/08/28 03:12:38;;;;;;;9.82;6.40;;;11.80;99.90;;;;;;5045888;28;20033;-67
2023/08/28 03:15:04;;;;;;;10.15;7.18;;;11.80;99.90;;;;;;5029932;28;20037;-67
2023/08/28 03:17:30;;;;;;;10.38;6.57;;;11.80;99.90;;;;;;5028083;28;20056;-67
2023/08/28 03:19:55;;;;;;;11.35;6.35;;;11.80;99.90;;;;;;5025779;28;20037;-67
2023/08/28 03:22:21;;;;;;;11.55;6.97;;;11.80;99.90;;;;;;5028825;28;20474;-67
2023/08/28 03:24:47;;;;;;;10.13;6.53;;;11.80;99.90;;;;;;5028851;28;20355;-67
2023/08/28 03:27:12;;;;;;;10.43;6.43;;;11.80;99.90;;;;;;5035603;28;20132;-67
2023/08/28 03:29:38;;;;;;;10.55;7.60;;;11.80;99.90;;;;;;5031803;28;20042;-67
2023/08/28 03:32:04;;;;;;;10.65;7.30;;;11.70;99.90;;;;;;5027110;28;20052;-67
2023/08/28 03:34:30;;;;;;;13.40;7.70;;;11.70;99.90;;;;;;5038019;28;20052;-66
2023/08/28 03:36:55;;;;;;;13.60;7.15;;;11.70;99.90;;;;;;5045190;28;20457;-67
2023/08/28 03:39:21;;;;;;;11.85;7.55;;;11.70;99.90;;;;;;5046402;28;20067;-66
2023/08/28 03:41:47;;;;;;;10.82;7.55;;;11.70;99.90;;;;;;5045214;28;20103;-66
2023/08/28 03:44:12;;;;;;;14.52;7.40;;;11.70;99.90;;;;;;5043195;28;20416;-66
2023/08/28 03:46:38;;;;;;;12.10;7.35;;;11.60;99.90;;;;;;5037612;28;20112;-67
2023/08/28 03:49:04;;;;;;;10.50;7.47;;;11.60;99.90;;;;;;5029551;28;20115;-67
2023/08/28 03:51:29;;;;;;;13.32;7.30;;;11.60;99.90;;;;;;5035510;28;20515;-67
2023/08/28 03:53:55;;;;;;;13.57;7.10;;;11.50;99.90;;;;;;5026844;28;20041;-67
2023/08/28 03:56:20;;;;;;;11.25;7.15;;;11.60;99.90;;;;;;5028234;28;20503;-67
2023/08/28 03:58:47;;;;;;;10.43;7.13;;;11.60;99.90;;;;;;5028370;28;20673;-67
2023/08/28 04:01:14;;;;;;;10.13;7.25;;;11.60;99.90;;;;;;5032987;28;20103;-67
2023/08/28 04:03:39;;;;;;;9.60;7.00;;;11.60;99.90;;;;;;5020897;28;20469;-66
2023/08/28 04:06:05;;;;;;;10.73;7.10;;;11.60;99.90;;;;;;5029415;28;20095;-67
2023/08/28 04:08:30;;;;;;;11.98;6.82;;;11.60;99.90;;;;;;5041441;28;20065;-67
2023/08/28 04:10:58;;;;;;;10.48;7.18;;;11.60;99.90;;;;;;5042751;28;20034;-67
2023/08/28 04:13:24;;;;;;;11.35;6.93;;;11.50;99.90;;;;;;5040030;28;20041;-67
2023/08/28 04:15:49;;;;;;;11.32;6.82;;;11.50;99.90;;;;;;5026135;28;20372;-67
2023/08/28 04:18:15;;;;;;;10.55;7.20;;;11.50;99.90;;;;;;5043979;28;20041;-66
2023/08/28 04:20:41;;;;;;;10.65;6.00;;;11.50;99.90;;;;;;5039067;28;20124;-67
2023/08/28 04:23:06;;;;;;;10.07;6.07;;;11.50;99.90;;;;;;5039547;28;20033;-66
2023/08/28 04:25:32;;;;;;;12.02;6.50;;;11.40;99.90;;;;;;5032998;28;20111;-66
2023/08/28 04:27:57;;;;;;;9.38;6.03;;;11.40;99.90;;;;;;5032798;28;20095;-67
2023/08/28 04:30:23;;;;;;;10.32;5.68;;;11.40;99.90;;;;;;5043875;28;20357;-67
2023/08/28 04:32:48;;;;;;;9.20;5.43;;;11.30;99.90;;;;;;5038062;28;20128;-66
2023/08/28 04:35:14;;;;;;;7.30;5.60;;;11.20;99.90;;;;;;5045115;28;20065;-67
2023/08/28 04:37:40;;;;;;;8.98;5.75;;;11.20;99.90;;;;;;5032450;28;20043;-66
2023/08/28 04:40:06;;;;;;;9.20;5.65;;;11.20;99.90;;;;;;5032398;28;20123;-67
2023/08/28 04:42:31;;;;;;;7.75;5.78;;;11.30;99.90;;;;;;5016156;28;20630;-67
2023/08/28 04:44:57;;;;;;;10.00;6.28;;;11.30;99.90;;;;;;5035413;28;20042;-66
2023/08/28 04:47:23;;;;;;;8.57;5.57;;;11.40;99.90;;;;;;5034118;28;20461;-66
2023/08/28 04:49:48;;;;;;;9.10;5.85;;;11.40;99.90;;;;;;5047041;28;20389;-67
2023/08/28 04:52:14;;;;;;;10.48;6.43;;;11.40;99.90;;;;;;5031913;28;20060;-66
2023/08/28 04:54:39;;;;;;;10.70;6.50;;;11.50;99.90;;;;;;5038427;28;20036;-67
2023/08/28 04:57:05;;;;;;;9.18;6.10;;;11.50;99.90;;;;;;5038297;28;20109;-67
2023/08/28 04:59:31;;;;;;;10.85;6.35;;;11.50;99.90;;;;;;5041431;28;20473;-65
2023/08/28 05:01:56;;;;;;;9.23;5.63;;;11.50;99.90;;;;;;5040928;28;20045;-65
2023/08/28 05:04:22;;;;;;;10.98;5.72;;;11.40;99.90;;;;;;5036088;28;20380;-65
2023/08/28 05:06:48;;;;;;;8.93;6.00;;;11.50;99.90;;;;;;5021173;28;20049;-65
2023/08/28 05:09:14;;;;;;;9.27;6.53;;;11.50;99.90;;;;;;5030858;28;20050;-65
2023/08/28 05:11:40;;;;;;;10.65;6.60;;;11.60;99.90;;;;;;5052916;28;20083;-65
2023/08/28 05:14:05;;;;;;;11.07;6.05;;;11.60;99.90;;;;;;5025261;28;20087;-65
2023/08/28 05:16:32;;;;;;;9.85;7.30;;;11.60;99.90;;;;;;5030118;28;20163;-66
2023/08/28 05:18:57;;;;;;;10.05;6.30;;;11.70;99.90;;;;;;5037438;28;20045;-65
2023/08/28 05:21:23;;;;;;;11.60;7.18;;;11.70;99.90;;;;;;5043474;28;20322;-65
2023/08/28 05:23:48;;;;;;;13.73;7.07;;;11.70;99.90;;;;;;5033648;28;20098;-65
2023/08/28 05:26:14;;;;;;;13.35;7.07;;;11.70;99.90;;;;;;5044103;28;20053;-65
2023/08/28 05:28:40;;;;;;;10.77;6.95;;;11.80;99.90;;;;;;5033102;28;20501;-65
2023/08/28 05:31:06;;;;;;;11.30;7.00;;;11.80;99.90;;;;;;5038859;28;20033;-65
2023/08/28 05:33:33;;;;;;;9.98;6.78;;;11.80;99.90;;;;;;5040082;28;20072;-65
2023/08/28 05:35:59;;;;;;;10.63;7.05;;;11.90;99.90;;;;;;5024110;28;20045;-65
2023/08/28 05:38:24;;;;;;;12.13;7.50;;;11.90;99.90;;;;;;5042687;28;20342;-65
2023/08/28 05:40:50;;;;;;;11.88;7.07;;;11.90;99.90;;;;;;5037253;28;20170;-65
2023/08/28 05:43:15;;;;;;;13.88;7.97;;;12.00;99.90;;;;;;5030903;28;20165;-65
2023/08/28 05:45:41;;;;;;;10.35;6.88;;;12.10;99.90;;;;;;5028900;28;20052;-65
2023/08/28 05:48:07;;;;;;;11.50;7.18;;;12.10;99.90;;;;;;5032902;28;20042;-65
2023/08/28 05:50:33;;;;;;;12.82;7.55;;;12.20;99.90;;;;;;5034963;28;20071;-65
2023/08/28 05:52:58;;;;;;;12.15;7.15;;;12.20;99.90;;;;;;5026304;28;20224;-66
2023/08/28 05:55:24;;;;;;;15.45;7.15;;;12.30;99.90;;;;;;5032574;28;20045;-66
2023/08/28 05:57:50;;;;;;;10.00;6.70;;;12.30;99.90;;;;;;5034107;28;20048;-66
2023/08/28 06:00:16;;;;;;;11.60;6.90;;;12.40;99.90;;;;;;5037515;28;20128;-65
2023/08/28 06:02:42;;;;;;;11.77;6.70;;;12.40;99.90;;;;;;5036965;28;20033;-65
2023/08/28 06:05:08;;;;;;;9.57;6.40;;;12.50;99.90;;;;;;5031881;28;20519;-65
2023/08/28 06:07:35;;;;;;;10.90;6.68;;;12.60;99.90;;;;;;5033530;28;20040;-65
2023/08/28 06:10:01;;;;;;;9.27;6.38;;;12.60;99.90;;;;;;5036311;28;20049;-65
2023/08/28 06:12:26;;;;;;;11.27;6.68;;;12.80;99.90;;;;;;5043901;28;20041;-66
2023/08/28 06:14:52;;;;;;;12.10;6.65;;;12.90;99.90;;;;;;5043709;28;20045;-65
2023/08/28 06:17:18;;;;;;;12.00;7.05;;;12.90;99.90;;;;;;5029215;28;20389;-66
2023/08/28 06:19:43;;;;;;;10.63;7.50;;;13.00;99.90;;;;;;5030536;28;20496;-65
2023/08/28 06:22:09;;;;;;;12.30;7.35;;;13.10;99.90;;;;;;5044383;28;20056;-65
2023/08/28 06:24:34;;;;;;;12.75;7.35;;;13.10;99.90;;;;;;5044627;28;20032;-65
2023/08/28 06:27:00;;;;;;;11.02;7.45;;;13.20;99.90;;;;;;5035327;28;20045;-65
2023/08/28 06:29:26;;;;;;;12.15;6.90;;;13.40;99.90;;;;;;5044620;28;20079;-65
2023/08/28 06:31:52;;;;;;;9.82;7.28;;;13.50;99.90;;;;;;5049729;28;20610;-66
2023/08/28 06:34:18;;;;;;;18.02;8.95;;;13.70;99.90;;;;;;5041805;28;20068;-68
2023/08/28 06:36:45;;;;;;;8.57;6.35;;;13.90;99.90;;;;;;5040312;28;20115;-65
2023/08/28 06:39:11;;;;;;;10.00;6.35;;;14.00;99.90;;;;;;5029553;28;20337;-67
2023/08/28 06:41:37;;;;;;;10.48;5.78;;;14.30;99.90;;;;;;5039276;28;20042;-65
2023/08/28 06:44:04;;;;;;;8.35;6.35;;;14.50;99.90;;;;;;5026773;28;20049;-62
2023/08/28 06:46:30;;;;;;;8.35;5.60;;;14.70;99.90;;;;;;5045137;28;20036;-62
2023/08/28 06:48:56;;;;;;;6.90;4.63;;;14.80;99.90;;;;;;5029108;28;22369;-64
2023/08/28 06:51:22;;;;;;;9.52;5.30;;;15.10;99.90;;;;;;5032944;28;20063;-63
2023/08/28 06:53:50;;;;;;;6.55;4.63;;;15.40;99.90;;;;;;5030288;28;20049;-63
2023/08/28 06:56:16;;;;;;;7.00;4.90;;;15.50;99.90;;;;;;5037765;28;20113;-63
2023/08/28 06:58:42;;;;;;;6.13;4.05;;;15.70;99.90;;;;;;5042293;28;20047;-65
2023/08/28 07:01:07;;;;;;;7.82;4.18;;;15.90;99.90;;;;;;5036516;28;20037;-62
2023/08/28 07:03:33;;;;;;;3.92;3.53;;;16.10;99.90;;;;;;5035555;28;20036;-62
2023/08/28 07:05:59;;;;;;;7.38;3.40;;;16.20;99.90;;;;;;5030018;28;20144;-63
2023/08/28 07:08:24;;;;;;;4.35;3.00;;;16.50;99.90;;;;;;5036086;28;20412;-63
2023/08/28 07:10:50;;;;;;;3.88;3.17;;;16.60;99.90;;;;;;5045654;28;20117;-64
2023/08/28 07:13:16;;;;;;;4.35;2.60;;;16.90;99.90;;;;;;5047042;28;20102;-63
2023/08/28 07:15:42;;;;;;;3.88;2.95;;;17.10;99.90;;;;;;5036917;28;20279;-62
2023/08/28 07:18:08;;;;;;;6.82;3.10;;;17.20;99.90;;;;;;5030517;28;20369;-64
2023/08/28 07:20:34;;;;;;;7.88;2.97;;;17.60;99.90;;;;;;5032613;28;20385;-65
2023/08/28 07:23:00;;;;;;;6.55;2.75;;;17.60;99.90;;;;;;5030737;28;20406;-63
2023/08/28 07:25:25;;;;;;;2.97;2.22;;;17.90;99.90;;;;;;5036420;28;20055;-62
2023/08/28 07:27:51;;;;;;;2.83;2.13;;;18.10;99.90;;;;;;5049405;28;20072;-64
2023/08/28 07:30:17;;;;;;;4.18;1.80;;;18.20;99.90;;;;;;5049154;28;20060;-63
2023/08/28 07:32:43;;;;;;;3.58;2.10;;;18.30;99.90;;;;;;5034822;28;20037;-63
2023/08/28 07:35:09;;;;;;;3.25;2.20;;;18.40;99.90;;;;;;5036935;28;20547;-63
2023/08/28 07:37:35;;;;;;;2.88;2.08;;;18.50;99.90;;;;;;5049037;28;20134;-63
2023/08/28 07:40:03;;;;;;;4.68;2.25;;;18.60;99.90;;;;;;5035853;28;20037;-63
2023/08/28 07:42:28;;;;;;;3.63;2.28;;;18.80;99.90;;;;;;5038209;28;20090;-64
2023/08/28 07:44:54;;;;;;;2.85;1.63;;;18.90;99.90;;;;;;5029553;28;20037;-63
2023/08/28 07:47:20;;;;;;;4.97;1.80;;;19.10;99.90;;;;;;5031938;28;20094;-64
2023/08/28 07:49:45;;;;;;;2.03;1.50;;;19.30;99.90;;;;;;5040825;28;20128;-63
2023/08/28 07:52:11;;;;;;;1.83;1.60;;;19.40;99.90;;;;;;5021124;28;20172;-64
2023/08/28 07:54:36;;;;;;;2.67;1.50;;;19.70;99.90;;;;;;5036661;28;20033;-64
2023/08/28 07:57:04;;;;;;;3.25;1.52;;;19.80;99.90;;;;;;5043380;28;20037;-63
2023/08/28 07:59:29;;;;;;;3.53;1.50;;;20.00;99.90;;;;;;5036716;28;20128;-64
2023/08/28 08:01:55;;;;;;;2.60;1.52;;;20.10;99.90;;;;;;5014996;28;20132;-64
2023/08/28 08:04:21;;;;;;;3.08;1.20;;;20.10;99.90;;;;;;5022166;28;20186;-63
2023/08/28 08:06:46;;;;;;;4.25;1.50;;;20.30;99.90;;;;;;5041273;28;20048;-64
2023/08/28 08:09:12;;;;;;;2.00;1.25;;;20.40;99.30;;;;;;5012522;28;20461;-65
2023/08/28 08:11:37;;;;;;;2.45;1.35;;;20.50;97.40;;;;;;5036848;28;20040;-64
2023/08/28 08:14:03;;;;;;;2.50;1.42;;;20.30;98.90;;;;;;5036376;28;20068;-64
2023/08/28 08:16:29;;;;;;;2.30;1.30;;;20.40;97.80;;;;;;5038393;28;20041;-63
2023/08/28 08:18:55;;;;;;;2.35;1.30;;;20.60;95.90;;;;;;5043080;28;20044;-64
2023/08/28 08:21:20;;;;;;;1.73;1.30;;;20.80;93.70;;;;;;5033786;28;20041;-65
2023/08/28 08:23:47;;;;;;;4.32;1.25;;;21.20;92.70;;;;;;5038053;28;20072;-64
2023/08/28 08:26:14;;;;;;;1.98;1.40;;;21.50;91.10;;;;;;5021006;28;20037;-66
2023/08/28 08:28:39;;;;;;;2.67;1.42;;;21.90;89.20;;;;;;5029708;28;20046;-66
2023/08/28 08:31:05;;;;;;;2.05;1.13;;;22.10;86.50;;;;;;5018741;28;20037;-64
2023/08/28 08:33:31;;;;;;;2.85;1.30;;;22.30;86.30;;;;;;5035240;28;20110;-65
2023/08/28 08:35:56;;;;;;;2.90;1.00;;;22.60;84.60;;;;;;5041865;28;20041;-64
2023/08/28 08:38:22;;;;;;;2.95;1.35;;;22.90;84.00;;;;;;5031452;28;20464;-65
2023/08/28 08:40:51;;;;;;;2.15;1.10;;;23.40;82.60;;;;;;5037420;28;20817;-65
2023/08/28 08:43:17;;;;;;;1.13;0.90;;;23.60;80.10;;;;;;5042362;28;20075;-65
2023/08/28 08:45:44;;;;;;;1.67;0.88;;;23.80;79.70;;;;;;5033638;28;20045;-64
2023/08/28 08:48:16;;;;;;;1.88;1.17;;;24.40;77.70;;;;;;5033782;28;20263;-66
2023/08/28 08:50:43;;;;;;;2.65;1.05;;;24.80;76.00;;;;;;5021509;28;20056;-65
2023/08/28 08:53:17;;;;;;;2.08;0.73;;;24.90;75.30;;;;;;5043311;28;20496;-65
2023/08/28 08:55:47;;;;;;;1.25;0.63;;;25.50;71.70;;;;;;5041738;28;20052;-64
2023/08/28 08:58:15;;;;;;;1.92;0.45;;;25.40;70.80;;;;;;5031847;28;20183;-64
2023/08/28 09:00:43;;;;;;;4.78;0.95;;;25.10;69.00;;;;;;5034090;28;20099;-66
2023/08/28 09:03:09;;;;;;;1.35;0.60;;;24.30;68.70;;;;;;5046556;28;20426;-66
2023/08/28 09:05:38;;;;;;;1.33;0.50;;;24.20;70.10;;;;;;5048422;28;20033;-65
2023/08/28 09:08:05;;;;;;;1.75;0.65;;;23.90;71.00;;;;;;5042487;28;20370;-64
2023/08/28 09:10:31;;;;;;;2.92;0.57;;;23.30;71.80;;;;;;5047247;28;20650;-66
2023/08/28 09:12:57;;;;;;;0.98;0.75;;;22.70;72.00;;;;;;5042074;28;20041;-65
2023/08/28 09:15:24;;;;;;;1.60;0.77;;;22.60;71.70;;;;;;5031551;28;20044;-64
2023/08/28 09:17:51;;;;;;;3.25;0.60;;;22.80;71.70;;;;;;5032231;28;20051;-64
2023/08/28 09:20:18;;;;;;;1.77;0.65;;;23.00;71.80;;;;;;5033877;28;20045;-64
2023/08/28 09:22:48;;;;;;;1.42;0.57;;;22.80;72.20;;;;;;5035621;28;20189;-64
2023/08/28 09:25:16;;;;;;;2.40;0.50;;;22.70;72.30;;;;;;5040944;28;20037;-64
2023/08/28 09:27:43;;;;;;;1.80;0.47;;;22.40;73.70;;;;;;5051227;28;20092;-64
2023/08/28 09:30:10;;;;;;;1.10;0.55;;;22.50;73.50;;;;;;5017693;28;20046;-65
2023/08/28 09:32:43;;;;;;;2.63;0.43;;;22.40;72.70;;;;;;5039073;28;20048;-64
2023/08/28 09:35:09;;;;;;;1.75;0.40;;;22.40;72.30;;;;;;5035456;28;20029;-63
2023/08/28 09:37:34;;;;;;;1.95;0.68;;;22.10;73.10;;;;;;5039571;28;20112;-65
2023/08/28 09:40:01;;;;;;;1.00;0.50;;;22.10;73.10;;;;;;5028534;28;20029;-63
2023/08/28 09:42:26;;;;;;;1.77;0.80;;;21.90;73.40;;;;;;5041147;28;20140;-63
2023/08/28 09:44:52;;;;;;;3.08;0.50;;;21.90;72.20;;;;;;5047291;28;20068;-64
2023/08/28 09:47:23;;;;;;;2.00;0.68;;;21.90;72.10;;;;;;5032904;28;20045;-63
2023/08/28 09:49:50;;;;;;;3.40;0.80;;;21.70;72.50;;;;;;5035003;28;20069;-64
2023/08/28 09:52:24;;;;;;;2.03;0.50;;;21.60;74.50;;;;;;5031937;28;20159;-64
2023/08/28 09:55:05;;;;;;;1.98;0.63;;;21.40;76.60;;;;;;5043737;28;20048;-63
2023/08/28 09:57:32;;;;;;;4.00;0.70;;;21.30;77.00;;;;;;5044181;28;20063;-64
2023/08/28 09:59:58;;;;;;;5.13;0.90;;;21.10;76.80;;;;;;5043198;28;20050;-64
2023/08/28 10:02:25;;;;;;;0.63;0.40;;;21.00;76.50;;;;;;5042718;28;20404;-64
2023/08/28 10:04:53;;;;;;;2.05;0.50;;;21.00;77.80;;;;;;5043249;28;20440;-63
2023/08/28 10:07:22;;;;;;;1.52;0.60;;;20.90;78.40;;;;;;5033398;28;20055;-63
2023/08/28 10:09:51;;;;;;;2.85;0.63;;;20.70;79.30;;;;;;5031562;28;20128;-65
2023/08/28 10:12:16;;;;;;;0.82;0.50;;;20.40;79.30;;;;;;5043097;28;20037;-63
2023/08/28 10:14:44;;;;;;;1.17;0.50;;;20.20;79.20;;;;;;5031164;28;20119;-63
2023/08/28 10:17:13;;;;;;;1.08;0.52;;;20.00;79.20;;;;;;5040793;28;20176;-63
2023/08/28 10:19:45;;;;;;;0.82;0.50;;;20.00;80.00;;;;;;5031316;28;20037;-64
2023/08/28 10:22:12;;;;;;;3.10;0.50;;;20.00;79.60;;;;;;5048725;28;20036;-64
2023/08/28 10:24:44;;;;;;;1.02;0.50;;;20.20;78.00;;;;;;5035455;28;20550;-63
2023/08/28 10:27:11;;;;;;;1.00;0.63;;;20.40;77.70;;;;;;5040135;28;20046;-64
2023/08/28 10:29:41;;;;;;;3.00;0.73;;;20.60;75.80;;;;;;5028102;28;20188;-62
2023/08/28 10:32:10;;;;;;;;;;;20.70;73.90;;;;;;5037572;28;20041;-63
2023/08/28 10:34:42;;;;;;;1.55;0.40;;;21.10;75.30;;;;;;5040367;28;19956;-63
2023/08/28 10:37:09;;;;;;;1.73;0.45;;;21.20;73.60;;;;;;5040793;28;20231;-64
2023/08/28 10:39:42;;;;;;;2.63;0.70;;;21.40;73.50;;;;;;5025692;28;20041;-64
2023/08/28 10:42:15;;;;;;;1.20;0.60;;;21.30;75.50;;;;;;5039665;28;20044;-64
2023/08/28 10:44:42;;;;;;;2.70;0.45;;;21.10;76.40;;;;;;5034725;28;20036;-64
2023/08/28 10:47:08;;;;;;;1.88;0.43;;;20.90;76.70;;;;;;5046606;28;20033;-63
2023/08/28 10:49:34;;;;;;;1.10;0.60;;;20.70;76.90;;;;;;5046708;28;20095;-63
2023/08/28 10:52:09;;;;;;;1.42;0.50;;;20.60;77.20;;;;;;5040237;28;20053;-63
2023/08/28 10:54:37;;;;;;;2.45;0.47;;;20.50;79.10;;;;;;5034250;28;20536;-64
2023/08/28 10:57:06;;;;;;;3.95;0.63;;;20.60;78.90;;;;;;5037612;28;20051;-63
2023/08/28 10:59:44;;;;;;;1.80;0.50;;;20.80;78.70;;;;;;5018427;28;20123;-62
2023/08/28 11:02:10;;;;;;;0.95;0.50;;;21.10;79.50;;;;;;5032939;28;20048;-63
2023/08/28 11:04:37;;;;;;;0.68;0.40;;;21.30;74.60;;;;;;5034747;28;20029;-63
2023/08/28 11:07:04;;;;;;;1.10;0.40;;;21.70;73.10;;;;;;5030442;28;20045;-62
2023/08/28 11:09:29;;;;;;;0.70;0.40;;;21.90;73.20;;;;;;5040718;28;20512;-62
2023/08/28 11:11:58;;;;;;;2.28;0.60;;;22.10;73.70;;;;;;5035413;28;20053;-63
2023/08/28 11:14:25;;;;;;;1.35;0.40;;;22.20;73.90;;;;;;5031779;28;20044;-64
2023/08/28 11:17:10;;;;;;;0.65;0.40;;;22.30;73.70;;;;;;5016269;28;20041;-63
2023/08/28 11:19:54;;;;;;;2.05;0.52;;;22.50;75.40;;;;;;5031705;28;20029;-64
2023/08/28 11:22:40;;;;;;;1.50;0.50;;;22.60;75.10;;;;;;5042232;28;20049;-63
2023/08/28 11:25:14;;;;;;;0.65;0.55;;;22.50;74.40;;;;;;5047316;28;20040;-63
2023/08/28 11:27:48;;;;;;;0.60;0.40;;;22.40;72.50;;;;;;5037603;28;20029;-63
2023/08/28 11:30:17;;;;;;;1.10;0.52;;;22.30;73.80;;;;;;5029711;28;20087;-65
2023/08/28 11:32:44;;;;;;;1.60;0.50;;;22.20;75.00;;;;;;5032501;28;20408;-64
2023/08/28 11:35:13;;;;;;;1.23;0.52;;;22.00;73.90;;;;;;5033189;28;20045;-65
2023/08/28 11:37:42;;;;;;;1.02;0.47;;;21.90;74.00;;;;;;5038674;28;20045;-65
2023/08/28 11:40:09;;;;;;;0.98;0.60;;;21.90;74.20;;;;;;5021574;28;20195;-65
2023/08/28 11:42:36;;;;;;;3.20;0.50;;;21.90;74.50;;;;;;5039497;28;20749;-64
2023/08/28 11:45:04;;;;;;;1.75;0.60;;;21.90;74.00;;;;;;5045309;28;20044;-65
2023/08/28 11:47:32;;;;;;;1.50;0.47;;;21.80;72.80;;;;;;5040799;28;20044;-64
2023/08/28 11:49:59;;;;;;;0.73;0.50;;;21.70;73.00;;;;;;5018731;28;20045;-64
2023/08/28 11:52:26;;;;;;;0.52;0.40;;;21.50;73.40;;;;;;5029551;28;20571;-65
2023/08/28 11:54:58;;;;;;;0.98;0.40;;;21.50;73.80;;;;;;5047368;28;20098;-64
2023/08/28 11:57:25;;;;;;;0.98;0.40;;;21.30;73.20;;;;;;5030201;28;20037;-64
2023/08/28 11:59:51;;;;;;;1.60;0.40;;;21.20;73.50;;;;;;5043352;28;20049;-65
2023/08/28 12:02:18;;;;;;;1.55;0.50;;;21.10;73.70;;;;;;5028481;28;20036;-65
2023/08/28 12:04:48;;;;;;;0.82;0.47;;;21.20;74.10;;;;;;5011926;28;20037;-65
2023/08/28 12:07:18;;;;;;;0.43;0.30;;;21.20;74.10;;;;;;5030872;28;20057;-65
2023/08/28 12:09:46;;;;;;;0.82;0.45;;;21.30;74.10;;;;;;5039040;28;20046;-64
2023/08/28 12:12:13;;;;;;;2.97;0.50;;;21.30;74.00;;;;;;5046743;28;20067;-65
2023/08/28 12:14:45;;;;;;;3.38;0.60;;;21.30;73.70;;;;;;5039308;28;20045;-65
2023/08/28 12:17:18;;;;;;;2.10;0.50;;;21.40;73.80;;;;;;5042311;28;20072;-65
2023/08/28 12:19:44;;;;;;;2.15;0.55;;;21.50;74.30;;;;;;5044197;28;20037;-66
2023/08/28 12:22:11;;;;;;;1.65;0.40;;;21.50;73.80;;;;;;5046856;28;20033;-65
2023/08/28 12:24:45;;;;;;;1.00;0.47;;;21.60;73.30;;;;;;5040370;28;20567;-64
2023/08/28 12:27:14;;;;;;;2.53;0.40;;;21.60;73.10;;;;;;5031033;28;20298;-64
2023/08/28 12:29:43;;;;;;;1.00;0.50;;;21.70;72.50;;;;;;5048504;28;20521;-65
2023/08/28 12:32:15;;;;;;;1.77;0.60;;;21.80;71.90;;;;;;5050484;28;20060;-64
2023/08/28 12:34:42;;;;;;;1.50;0.32;;;21.80;72.10;;;;;;5049021;28;20037;-64
2023/08/28 12:37:09;;;;;;;0.52;0.30;;;21.80;71.70;;;;;;5035567;28;20159;-65
2023/08/28 12:39:35;;;;;;;2.47;0.47;;;22.00;70.60;;;;;;5046700;28;20068;-64
2023/08/28 12:42:03;;;;;;;0.88;0.40;;;22.10;69.50;;;;;;5041201;28;20160;-64
2023/08/28 12:44:29;;;;;;;0.68;0.30;;;22.30;69.20;;;;;;5031867;28;20116;-65